createdAt,value
2019-02-18T00:00:48.731Z,7.30
2019-02-18T00:03:18.356Z,6.87
2019-02-18T00:05:47.997Z,6.47
2019-02-18T00:08:17.329Z,6.67
2019-02-18T00:10:46.217Z,6.70
2019-02-18T00:13:17.486Z,9.53
2019-02-18T00:15:47.987Z,9.27
2019-02-18T00:18:18.901Z,10.13
2019-02-18T00:20:50.514Z,6.93
2019-02-18T00:23:22.460Z,9.43
2019-02-18T00:25:51.604Z,7.83
2019-02-18T00:28:21.256Z,8.20
2019-02-18T00:30:52.972Z,8.80
2019-02-18T00:33:21.888Z,11.37
2019-02-18T00:35:51.739Z,11.97
2019-02-18T00:38:22.311Z,9.97
2019-02-18T00:40:52.087Z,10.37
2019-02-18T00:43:22.599Z,10.57
2019-02-18T00:45:53.075Z,9.90
2019-02-18T00:48:22.770Z,6.67
2019-02-18T00:50:52.401Z,10.40
2019-02-18T00:53:21.739Z,8.20
2019-02-18T00:55:51.441Z,10.73
2019-02-18T00:58:20.547Z,8.53
2019-02-18T01:00:50.452Z,7.57
2019-02-18T01:03:19.828Z,9.77
2019-02-18T01:05:49.768Z,8.97
2019-02-18T01:08:19.713Z,10.53
2019-02-18T01:10:49.252Z,8.07
2019-02-18T01:13:20.472Z,9.63
2019-02-18T01:15:50.510Z,8.43
2019-02-18T01:18:23.473Z,9.10
2019-02-18T01:20:55.388Z,10.37
2019-02-18T01:23:25.185Z,14.77
2019-02-18T01:25:54.417Z,8.40
2019-02-18T01:28:26.293Z,11.50
2019-02-18T01:30:57.272Z,9.60
2019-02-18T01:33:26.251Z,9.30
2019-02-18T01:36:05.829Z,10.60
2019-02-18T01:38:35.179Z,8.37
2019-02-18T01:41:06.477Z,10.03
2019-02-18T01:43:36.467Z,10.07
2019-02-18T01:46:06.992Z,9.90
2019-02-18T01:48:36.464Z,6.80
2019-02-18T01:51:06.536Z,8.33
2019-02-18T01:53:35.938Z,9.60
2019-02-18T01:56:05.993Z,11.17
2019-02-18T01:58:37.562Z,10.80
2019-02-18T02:01:06.600Z,9.47
2019-02-18T02:03:36.507Z,11.90
2019-02-18T02:06:07.470Z,11.00
2019-02-18T02:08:37.841Z,8.40
2019-02-18T02:11:10.830Z,7.50
2019-02-18T02:13:40.292Z,7.47
2019-02-18T02:16:11.624Z,10.37
2019-02-18T02:18:43.701Z,7.70
2019-02-18T02:21:15.569Z,9.87
2019-02-18T02:23:45.150Z,11.33
2019-02-18T02:26:14.187Z,10.20
2019-02-18T02:28:48.154Z,11.17
2019-02-18T02:31:21.484Z,7.70
2019-02-18T02:33:50.869Z,14.07
2019-02-18T02:36:21.517Z,10.03
2019-02-18T02:38:52.556Z,10.43
2019-02-18T02:41:26.531Z,10.20
2019-02-18T02:43:55.777Z,8.63
2019-02-18T02:46:25.403Z,9.57
2019-02-18T02:48:56.242Z,9.80
2019-02-18T02:51:25.848Z,9.43
2019-02-18T02:53:58.287Z,13.60
2019-02-18T02:56:31.103Z,6.93
2019-02-18T02:59:00.369Z,9.57
2019-02-18T03:01:32.709Z,11.90
2019-02-18T03:04:02.000Z,12.43
2019-02-18T03:06:32.244Z,9.13
2019-02-18T03:09:04.671Z,8.33
2019-02-18T03:11:34.969Z,10.27
2019-02-18T03:14:05.041Z,10.70
2019-02-18T03:16:42.384Z,9.50
2019-02-18T03:19:13.806Z,11.20
2019-02-18T03:21:43.477Z,8.23
2019-02-18T03:24:12.362Z,7.50
2019-02-18T03:26:41.376Z,9.23
2019-02-18T03:29:52.387Z,11.73
2019-02-18T03:32:21.554Z,13.07
2019-02-18T03:34:50.573Z,7.73
2019-02-18T03:37:20.923Z,11.27
2019-02-18T03:39:50.578Z,14.03
2019-02-18T03:42:19.848Z,10.80
2019-02-18T03:44:49.916Z,8.03
2019-02-18T03:47:18.701Z,9.20
2019-02-18T03:49:48.827Z,9.63
2019-02-18T03:52:20.747Z,7.30
2019-02-18T03:54:51.659Z,5.60
2019-02-18T03:57:24.124Z,6.20
2019-02-18T03:59:55.267Z,5.77
2019-02-18T04:02:26.013Z,8.20
2019-02-18T04:04:56.027Z,5.77
2019-02-18T04:07:26.097Z,5.83
2019-02-18T04:09:55.380Z,9.60
2019-02-18T04:12:27.019Z,5.60
2019-02-18T04:14:56.264Z,8.40
2019-02-18T04:17:26.180Z,8.90
2019-02-18T04:19:56.552Z,7.93
2019-02-18T04:22:30.740Z,10.10
2019-02-18T04:25:00.405Z,8.23
2019-02-18T04:27:29.596Z,8.80
2019-02-18T04:29:58.938Z,8.67
2019-02-18T04:32:30.180Z,9.37
2019-02-18T04:35:04.560Z,6.00
2019-02-18T04:37:39.574Z,6.90
2019-02-18T04:40:09.003Z,7.93
2019-02-18T04:42:39.291Z,6.73
2019-02-18T04:45:08.636Z,7.50
2019-02-18T04:47:38.512Z,8.90
2019-02-18T04:50:09.300Z,9.20
2019-02-18T04:52:38.985Z,9.50
2019-02-18T04:55:09.804Z,8.13
2019-02-18T04:57:39.865Z,7.97
2019-02-18T05:00:09.297Z,8.27
2019-02-18T05:02:41.104Z,7.37
2019-02-18T05:05:14.152Z,8.60
2019-02-18T05:07:43.536Z,6.20
2019-02-18T05:10:15.017Z,7.70
2019-02-18T05:12:49.335Z,6.83
2019-02-18T05:15:19.520Z,7.17
2019-02-18T05:17:48.939Z,6.17
2019-02-18T05:20:20.487Z,7.80
2019-02-18T05:22:50.679Z,4.63
2019-02-18T05:25:19.734Z,7.57
2019-02-18T05:27:52.056Z,6.03
2019-02-18T05:30:20.931Z,5.83
2019-02-18T05:32:52.954Z,6.30
2019-02-18T05:35:21.925Z,3.57
2019-02-18T05:37:52.328Z,3.80
2019-02-18T05:40:21.901Z,4.17
2019-02-18T05:42:53.011Z,6.60
2019-02-18T05:45:22.983Z,4.67
2019-02-18T05:47:53.856Z,3.27
2019-02-18T05:50:22.730Z,4.20
2019-02-18T05:52:54.349Z,2.77
2019-02-18T05:55:25.585Z,4.60
2019-02-18T05:57:55.164Z,3.70
2019-02-18T06:00:25.854Z,3.33
2019-02-18T06:02:58.516Z,4.73
2019-02-18T06:05:30.180Z,3.83
2019-02-18T06:08:03.562Z,5.60
2019-02-18T06:10:34.683Z,7.53
2019-02-18T06:13:06.024Z,5.83
2019-02-18T06:15:36.285Z,6.80
2019-02-18T06:18:07.021Z,8.07
2019-02-18T06:20:36.955Z,6.53
2019-02-18T06:23:08.570Z,8.03
2019-02-18T06:25:37.817Z,6.87
2019-02-18T06:28:10.193Z,6.97
2019-02-18T06:30:43.345Z,10.77
2019-02-18T06:33:13.183Z,6.10
2019-02-18T06:35:46.810Z,8.00
2019-02-18T06:38:16.152Z,7.47
2019-02-18T06:40:45.765Z,9.03
2019-02-18T06:43:15.001Z,8.00
2019-02-18T06:45:50.516Z,8.90
2019-02-18T06:48:34.356Z,11.80
2019-02-18T06:51:04.093Z,9.43
2019-02-18T06:53:33.464Z,9.70
2019-02-18T06:56:03.073Z,8.50
2019-02-18T06:58:42.325Z,10.27
2019-02-18T07:01:26.386Z,6.80
2019-02-18T07:04:20.736Z,8.67
2019-02-18T07:07:00.504Z,8.90
2019-02-18T07:09:51.168Z,8.27
2019-02-18T07:12:26.402Z,7.97
2019-02-18T07:14:55.240Z,5.50
2019-02-18T07:17:25.612Z,5.37
2019-02-18T07:19:55.264Z,5.63
2019-02-18T07:22:24.711Z,6.83
2019-02-18T07:24:55.112Z,7.03
2019-02-18T07:27:25.308Z,7.20
2019-02-18T07:29:54.497Z,7.10
2019-02-18T07:32:23.586Z,8.33
2019-02-18T07:34:54.568Z,24.73
2019-02-18T07:37:24.497Z,28.83
2019-02-18T07:40:01.201Z,20.53
2019-02-18T07:42:24.453Z,33.97
2019-02-18T07:44:54.247Z,11.53
2019-02-18T07:47:23.920Z,12.47
2019-02-18T07:49:53.744Z,12.43
2019-02-18T07:52:27.318Z,13.70
2019-02-18T07:54:57.957Z,12.20
2019-02-18T07:57:28.550Z,13.33
2019-02-18T07:59:58.523Z,11.57
2019-02-18T08:02:27.794Z,12.30
2019-02-18T08:04:57.119Z,12.37
2019-02-18T08:07:26.828Z,14.27
2019-02-18T08:09:56.100Z,12.40
2019-02-18T08:12:25.461Z,13.77
2019-02-18T08:14:56.152Z,13.80
2019-02-18T08:17:25.538Z,12.70
2019-02-18T08:19:55.262Z,12.83
2019-02-18T08:22:25.472Z,13.87
2019-02-18T08:24:55.893Z,11.97
2019-02-18T08:27:27.992Z,10.63
2019-02-18T08:29:57.273Z,9.40
2019-02-18T08:32:29.629Z,8.60
2019-02-18T08:35:04.999Z,7.93
2019-02-18T08:37:34.265Z,9.07
2019-02-18T08:40:03.777Z,9.10
2019-02-18T08:42:34.351Z,8.63
2019-02-18T08:45:05.270Z,9.27
2019-02-18T08:47:44.684Z,10.17
2019-02-18T08:50:14.701Z,10.33
2019-02-18T08:52:43.995Z,12.23
2019-02-18T08:55:18.164Z,9.83
2019-02-18T08:57:49.704Z,9.20
2019-02-18T09:00:19.037Z,9.63
2019-02-18T09:02:51.516Z,9.77
2019-02-18T09:05:20.928Z,11.10
2019-02-18T09:07:53.614Z,9.97
2019-02-18T09:10:32.925Z,11.40
2019-02-18T09:12:56.011Z,10.27
2019-02-18T09:15:28.008Z,9.27
2019-02-18T09:17:56.906Z,10.90
2019-02-18T09:20:28.116Z,10.47
2019-02-18T09:23:06.188Z,14.60
2019-02-18T09:25:43.518Z,10.03
2019-02-18T09:28:16.393Z,10.47
2019-02-18T09:30:49.490Z,12.47
2019-02-18T09:33:26.016Z,11.53
2019-02-18T09:35:55.279Z,12.30
2019-02-18T09:38:25.698Z,11.33
2019-02-18T09:40:55.312Z,11.60
2019-02-18T09:43:25.068Z,12.60
2019-02-18T09:45:55.240Z,13.37
2019-02-18T09:48:26.289Z,11.83
2019-02-18T09:50:55.452Z,12.57
2019-02-18T09:53:24.805Z,12.10
2019-02-18T09:55:53.612Z,14.20
2019-02-18T09:58:22.636Z,10.73
2019-02-18T10:00:52.315Z,22.00
2019-02-18T10:03:31.495Z,9.50
2019-02-18T10:05:53.921Z,10.43
2019-02-18T10:08:24.255Z,10.27
2019-02-18T10:10:55.988Z,11.17
2019-02-18T10:13:25.385Z,10.97
2019-02-18T10:15:55.000Z,10.80
2019-02-18T10:18:23.876Z,10.40
2019-02-18T10:20:53.399Z,11.53
2019-02-18T10:23:22.612Z,10.60
2019-02-18T10:25:53.832Z,10.63
2019-02-18T10:28:25.411Z,10.67
2019-02-18T10:30:55.649Z,9.63
2019-02-18T10:33:26.521Z,9.23
2019-02-18T10:35:56.069Z,10.73
2019-02-18T10:38:25.773Z,12.40
2019-02-18T10:41:06.123Z,11.80
2019-02-18T10:43:32.522Z,12.67
2019-02-18T10:45:58.164Z,12.40
2019-02-18T10:48:30.050Z,13.00
2019-02-18T10:51:00.056Z,15.20
2019-02-18T10:53:31.375Z,14.70
2019-02-18T10:56:02.130Z,14.73
2019-02-18T10:58:33.073Z,13.50
2019-02-18T11:01:06.848Z,14.63
2019-02-18T11:03:36.072Z,15.00
2019-02-18T11:06:05.308Z,14.20
2019-02-18T11:08:34.193Z,13.97
2019-02-18T11:11:16.330Z,15.00
2019-02-18T11:13:37.067Z,14.77
2019-02-18T11:16:06.544Z,16.47
2019-02-18T11:18:36.516Z,16.00
2019-02-18T11:21:06.198Z,14.37
2019-02-18T11:23:36.116Z,14.67
2019-02-18T11:26:05.243Z,14.87
2019-02-18T11:28:35.302Z,14.20
2019-02-18T11:31:04.594Z,13.33
2019-02-18T11:33:39.456Z,14.10
2019-02-18T11:36:10.068Z,13.73
2019-02-18T11:38:43.263Z,14.07
2019-02-18T11:41:13.354Z,12.90
2019-02-18T11:43:44.448Z,14.43
2019-02-18T11:46:15.901Z,14.07
2019-02-18T11:48:47.275Z,13.83
2019-02-18T11:51:17.045Z,14.97
2019-02-18T11:53:49.495Z,15.37
2019-02-18T11:56:20.260Z,14.63
2019-02-18T11:58:51.200Z,14.47
2019-02-18T12:01:20.471Z,12.93
2019-02-18T12:03:49.597Z,14.00
2019-02-18T12:06:22.061Z,14.70
2019-02-18T12:08:53.029Z,13.00
2019-02-18T12:11:26.342Z,12.30
2019-02-18T12:13:53.252Z,12.60
2019-02-18T12:16:24.144Z,12.20
2019-02-18T12:18:53.828Z,12.77
2019-02-18T12:21:23.896Z,13.73
2019-02-18T12:23:53.648Z,12.87
2019-02-18T12:26:23.639Z,11.33
2019-02-18T12:28:55.304Z,13.20
2019-02-18T12:31:27.216Z,11.33
2019-02-18T12:33:56.581Z,13.60
2019-02-18T12:36:28.188Z,13.20
2019-02-18T12:38:58.414Z,13.50
2019-02-18T12:41:29.212Z,15.73
2019-02-18T12:43:59.044Z,12.57
2019-02-18T12:46:29.171Z,12.27
2019-02-18T12:48:58.024Z,13.57
2019-02-18T12:51:27.145Z,13.33
2019-02-18T12:54:04.808Z,11.20
2019-02-18T12:56:29.376Z,12.60
2019-02-18T12:59:02.717Z,11.90
2019-02-18T13:01:32.026Z,14.30
2019-02-18T13:04:04.492Z,8.73
2019-02-18T13:06:33.437Z,9.87
2019-02-18T13:09:05.421Z,10.13
2019-02-18T13:11:35.485Z,14.73
2019-02-18T13:14:28.275Z,9.53
2019-02-18T13:17:18.608Z,11.47
2019-02-18T13:19:50.467Z,9.90
2019-02-18T13:22:22.667Z,9.23
2019-02-18T13:24:52.120Z,9.70
2019-02-18T13:27:23.745Z,9.50
2019-02-18T13:29:54.252Z,9.13
2019-02-18T13:32:27.313Z,8.53
2019-02-18T13:34:56.868Z,9.50
2019-02-18T13:37:26.963Z,13.00
2019-02-18T13:39:56.898Z,9.10
2019-02-18T13:42:27.584Z,9.00
2019-02-18T13:44:58.583Z,8.03
2019-02-18T13:47:27.843Z,8.87
2019-02-18T13:49:57.131Z,8.27
2019-02-18T13:52:29.304Z,8.60
2019-02-18T13:55:04.245Z,8.00
2019-02-18T13:57:33.603Z,11.80
2019-02-18T14:00:05.513Z,9.10
2019-02-18T14:02:36.172Z,9.13
2019-02-18T14:05:06.192Z,11.03
2019-02-18T14:07:38.276Z,6.17
2019-02-18T14:10:07.759Z,5.83
2019-02-18T14:12:37.807Z,6.10
2019-02-18T14:15:07.097Z,7.33
2019-02-18T14:17:37.854Z,7.17
2019-02-18T14:20:10.439Z,8.80
2019-02-18T14:22:39.440Z,5.63
2019-02-18T14:25:10.137Z,4.13
2019-02-18T14:27:41.002Z,4.43
2019-02-18T14:30:13.411Z,2.80
2019-02-18T14:32:46.726Z,4.93
2019-02-18T14:35:19.539Z,3.93
2019-02-18T14:37:49.584Z,3.73
2019-02-18T14:40:20.171Z,2.93
2019-02-18T14:42:49.673Z,4.40
2019-02-18T14:45:19.420Z,4.63
2019-02-18T14:47:48.709Z,3.43
2019-02-18T14:50:18.265Z,3.07
2019-02-18T14:52:53.848Z,4.27
2019-02-18T14:55:26.432Z,3.70
2019-02-18T14:57:55.734Z,4.60
2019-02-18T15:00:29.215Z,10.30
2019-02-18T15:02:58.921Z,8.23
2019-02-18T15:05:28.200Z,9.33
2019-02-18T15:07:58.323Z,8.87
2019-02-18T15:10:28.468Z,9.60
2019-02-18T15:12:58.709Z,9.57
2019-02-18T15:15:27.992Z,8.40
2019-02-18T15:17:56.894Z,7.47
2019-02-18T15:20:28.599Z,12.63
2019-02-18T15:22:57.949Z,14.43
2019-02-18T15:25:29.266Z,13.37
2019-02-18T15:27:59.597Z,10.40
2019-02-18T15:30:29.941Z,6.43
2019-02-18T15:33:04.686Z,7.10
2019-02-18T15:35:35.919Z,5.23
2019-02-18T15:38:07.261Z,8.43
2019-02-18T15:40:37.459Z,7.73
2019-02-18T15:43:07.465Z,6.43
2019-02-18T15:45:38.840Z,7.50
2019-02-18T15:48:08.192Z,6.40
2019-02-18T15:50:37.175Z,9.43
2019-02-18T15:53:08.669Z,7.37
2019-02-18T15:55:38.703Z,9.23
2019-02-18T15:58:08.143Z,8.60
2019-02-18T16:00:38.302Z,8.80
2019-02-18T16:03:11.246Z,9.00
2019-02-18T16:05:41.350Z,9.30
2019-02-18T16:08:14.180Z,9.73
2019-02-18T16:10:44.545Z,9.03
2019-02-18T16:13:18.539Z,11.00
2019-02-18T16:15:48.520Z,8.63
2019-02-18T16:18:18.687Z,9.57
2019-02-18T16:20:51.272Z,9.30
2019-02-18T16:23:21.016Z,9.37
2019-02-18T16:25:50.993Z,12.50
2019-02-18T16:28:20.201Z,13.30
2019-02-18T16:30:49.881Z,13.23
2019-02-18T16:33:22.731Z,12.70
2019-02-18T16:35:53.033Z,10.53
2019-02-18T16:38:22.908Z,13.17
2019-02-18T16:40:52.706Z,12.00
2019-02-18T16:43:22.664Z,10.83
2019-02-18T16:45:51.657Z,10.43
2019-02-18T16:48:23.852Z,12.87
2019-02-18T16:50:54.128Z,14.27
2019-02-18T16:53:23.149Z,11.00
2019-02-18T16:55:53.885Z,12.27
2019-02-18T16:58:24.219Z,12.03
2019-02-18T17:00:57.825Z,13.40
2019-02-18T17:03:28.920Z,13.60
2019-02-18T17:05:58.895Z,13.80
2019-02-18T17:08:28.600Z,12.73
2019-02-18T17:10:58.753Z,13.63
2019-02-18T17:13:28.621Z,15.73
2019-02-18T17:15:59.167Z,13.90
2019-02-18T17:18:31.380Z,14.87
2019-02-18T17:21:04.570Z,13.93
2019-02-18T17:23:34.366Z,17.00
2019-02-18T17:26:03.369Z,11.87
2019-02-18T17:28:33.487Z,11.33
2019-02-18T17:31:03.107Z,10.40
2019-02-18T17:33:34.264Z,11.13
2019-02-18T17:36:04.284Z,11.87
2019-02-18T17:38:33.875Z,9.90
2019-02-18T17:41:04.561Z,11.00
2019-02-18T17:43:34.092Z,12.33
2019-02-18T17:46:03.197Z,10.60
2019-02-18T17:48:37.126Z,9.17
2019-02-18T17:51:06.749Z,10.17
2019-02-18T17:53:40.080Z,13.53
2019-02-18T17:56:09.424Z,10.00
2019-02-18T17:58:39.122Z,10.30
2019-02-18T18:01:08.674Z,11.30
2019-02-18T18:03:38.136Z,17.00
2019-02-18T18:06:15.116Z,9.83
2019-02-18T18:08:44.178Z,12.10
2019-02-18T18:11:14.025Z,10.90
2019-02-18T18:13:50.209Z,13.90
2019-02-18T18:16:21.339Z,14.90
2019-02-18T18:18:51.557Z,15.73
2019-02-18T18:21:23.179Z,22.57
2019-02-18T18:23:53.040Z,14.13
2019-02-18T18:26:22.372Z,10.83
2019-02-18T18:28:53.814Z,11.53
2019-02-18T18:31:25.981Z,10.40
2019-02-18T18:33:57.601Z,9.70
2019-02-18T18:36:31.754Z,8.33
2019-02-18T18:39:01.465Z,11.73
2019-02-18T18:41:31.362Z,12.07
2019-02-18T18:44:00.861Z,11.23
2019-02-18T18:46:31.164Z,16.07
2019-02-18T18:49:01.071Z,21.93
2019-02-18T18:51:32.551Z,10.47
2019-02-18T18:54:04.656Z,10.77
2019-02-18T18:56:35.107Z,7.80
2019-02-18T18:59:03.996Z,9.73
2019-02-18T19:01:35.960Z,9.13
2019-02-18T19:04:07.607Z,7.90
2019-02-18T19:06:36.735Z,8.97
2019-02-18T19:09:13.405Z,11.67
2019-02-18T19:11:43.724Z,10.83
2019-02-18T19:14:13.663Z,7.33
2019-02-18T19:16:45.161Z,8.07
2019-02-18T19:19:15.185Z,9.20
2019-02-18T19:21:46.017Z,8.07
2019-02-18T19:24:15.952Z,9.53
2019-02-18T19:26:45.532Z,11.00
2019-02-18T19:29:15.881Z,10.53
2019-02-18T19:31:46.410Z,10.20
2019-02-18T19:34:17.070Z,11.20
2019-02-18T19:36:46.028Z,10.83
2019-02-18T19:39:20.842Z,14.13
2019-02-18T19:41:49.795Z,16.47
2019-02-18T19:44:20.178Z,10.67
2019-02-18T19:46:52.597Z,12.27
2019-02-18T19:49:21.525Z,12.30
2019-02-18T19:51:51.859Z,8.43
2019-02-18T19:54:20.873Z,8.70
2019-02-18T19:56:51.148Z,11.90
2019-02-18T19:59:20.407Z,9.07
2019-02-18T20:01:50.218Z,8.47
2019-02-18T20:04:19.491Z,9.17
2019-02-18T20:06:52.597Z,7.70
2019-02-18T20:09:21.486Z,4.77
2019-02-18T20:11:51.602Z,7.23
2019-02-18T20:14:31.632Z,7.17
2019-02-18T20:17:02.197Z,11.43
2019-02-18T20:19:31.981Z,6.97
2019-02-18T20:22:03.217Z,8.40
2019-02-18T20:24:34.271Z,6.33
2019-02-18T20:27:03.611Z,7.40
2019-02-18T20:29:33.742Z,7.53
2019-02-18T20:32:04.412Z,6.97
2019-02-18T20:34:35.641Z,5.50
2019-02-18T20:37:05.445Z,7.67
2019-02-18T20:39:38.777Z,4.20
2019-02-18T20:42:09.393Z,3.90
2019-02-18T20:44:39.607Z,4.57
2019-02-18T20:47:10.499Z,3.90
2019-02-18T20:49:40.607Z,5.23
2019-02-18T20:52:10.084Z,9.17
2019-02-18T20:54:38.990Z,8.93
2019-02-18T20:57:09.783Z,11.37
2019-02-18T20:59:42.484Z,5.93
2019-02-18T21:02:12.288Z,8.50
2019-02-18T21:04:41.409Z,5.60
2019-02-18T21:07:13.954Z,5.43
2019-02-18T21:09:44.071Z,5.47
2019-02-18T21:12:19.897Z,5.47
2019-02-18T21:14:47.024Z,5.00
2019-02-18T21:17:16.297Z,6.57
2019-02-18T21:19:45.512Z,4.80
2019-02-18T21:22:16.580Z,7.17
2019-02-18T21:24:47.068Z,3.77
2019-02-18T21:27:17.980Z,3.93
2019-02-18T21:29:48.634Z,5.83
2019-02-18T21:32:19.090Z,7.30
2019-02-18T21:34:49.824Z,4.70
2019-02-18T21:37:20.047Z,4.83
2019-02-18T21:39:49.720Z,6.20
2019-02-18T21:42:18.897Z,5.97
2019-02-18T21:44:52.556Z,5.47
2019-02-18T21:47:21.812Z,4.90
2019-02-18T21:49:52.056Z,3.93
2019-02-18T21:52:21.699Z,7.87
2019-02-18T21:54:51.057Z,3.37
2019-02-18T21:57:20.660Z,6.67
2019-02-18T21:59:49.881Z,3.60
2019-02-18T22:02:20.648Z,5.17
2019-02-18T22:04:50.205Z,6.33
2019-02-18T22:07:22.039Z,5.77
2019-02-18T22:09:51.519Z,4.87
2019-02-18T22:12:21.279Z,3.10
2019-02-18T22:14:50.108Z,4.00
2019-02-18T22:17:20.764Z,4.40
2019-02-18T22:19:50.108Z,3.70
2019-02-18T22:22:21.003Z,3.70
2019-02-18T22:24:50.574Z,6.20
2019-02-18T22:27:22.231Z,3.73
2019-02-18T22:29:52.133Z,4.80
2019-02-18T22:32:23.062Z,4.10
2019-02-18T22:34:55.460Z,5.03
2019-02-18T22:37:29.429Z,5.40
2019-02-18T22:39:58.932Z,3.60
2019-02-18T22:42:28.632Z,4.03
2019-02-18T22:45:00.353Z,5.60
2019-02-18T22:47:30.453Z,3.87
2019-02-18T22:49:59.713Z,4.93
2019-02-18T22:52:29.123Z,4.60
2019-02-18T22:55:03.260Z,4.53
2019-02-18T22:57:33.377Z,4.17
2019-02-18T23:00:03.824Z,6.97
2019-02-18T23:02:35.377Z,4.97
2019-02-18T23:05:04.709Z,4.20
2019-02-18T23:07:34.347Z,5.87
2019-02-18T23:10:03.524Z,6.70
2019-02-18T23:12:33.898Z,3.83
2019-02-18T23:15:04.629Z,4.57
2019-02-18T23:17:35.081Z,5.70
2019-02-18T23:20:05.546Z,4.20
2019-02-18T23:22:37.833Z,8.40
2019-02-18T23:25:12.670Z,4.30
2019-02-18T23:27:44.408Z,5.83
2019-02-18T23:30:13.718Z,8.60
2019-02-18T23:32:43.946Z,3.90
2019-02-18T23:35:14.917Z,3.77
2019-02-18T23:37:44.667Z,6.70
2019-02-18T23:40:13.763Z,4.03
2019-02-18T23:42:43.208Z,5.90
2019-02-18T23:45:15.450Z,4.60
2019-02-18T23:47:44.371Z,4.30
2019-02-18T23:50:13.776Z,4.90
2019-02-18T23:52:42.564Z,7.10
2019-02-18T23:55:11.881Z,4.80
2019-02-18T23:57:40.933Z,6.67
